Time;durP1;ratioP1;P1;durP2;ratioP2;P2;SDS_P1;SDS_P2;PMS_P1;PMS_P2;Temp;Humidity;BMP_temperature;BMP_pressure;BME280_temperature;BME280_humidity;BME280_pressure;Samples;Min_cycle;Max_cycle;Signal;HPM_P1;HPM_P2
2022/08/28 00:02:20;;;;;;;7.25;3.67;;;15.60;99.90;;;;;;5043616;28;37665;-78
2022/08/28 00:04:46;;;;;;;11.18;4.15;;;15.60;99.90;;;;;;5055529;28;38232;-78
2022/08/28 00:07:13;;;;;;;6.75;3.25;;;15.60;99.90;;;;;;5054226;28;39210;-79
2022/08/28 00:09:39;;;;;;;12.32;4.38;;;15.50;99.90;;;;;;5070865;28;38948;-78
2022/08/28 00:12:05;;;;;;;8.73;3.50;;;15.50;99.90;;;;;;5079542;28;38208;-78
2022/08/28 00:14:31;;;;;;;8.95;3.80;;;15.50;99.90;;;;;;5060477;28;38952;-78
2022/08/28 00:16:58;;;;;;;12.07;3.83;;;15.40;99.90;;;;;;5077094;28;39592;-78
2022/08/28 00:19:24;;;;;;;9.77;3.83;;;15.40;99.90;;;;;;5072262;28;39466;-78
2022/08/28 00:21:50;;;;;;;10.63;4.10;;;15.40;99.90;;;;;;5055021;28;38357;-78
2022/08/28 00:24:17;;;;;;;10.73;4.32;;;15.40;99.90;;;;;;5058904;28;37904;-79
2022/08/28 00:29:30;;;;;;;10.40;4.32;;;15.30;99.90;;;;;;5054052;28;49346;-78
2022/08/28 00:31:56;;;;;;;11.57;4.18;;;15.30;99.90;;;;;;5061365;28;37830;-78
2022/08/28 00:34:22;;;;;;;7.35;3.65;;;15.30;99.90;;;;;;5068991;28;36991;-78
2022/08/28 00:36:49;;;;;;;10.80;4.13;;;15.30;99.90;;;;;;5079352;27;38491;-78
2022/08/28 00:39:15;;;;;;;7.90;4.03;;;15.20;99.90;;;;;;5081399;27;38573;-78
2022/08/28 00:41:41;;;;;;;8.88;3.60;;;15.20;99.90;;;;;;5078487;28;39070;-78
2022/08/28 00:44:12;;;;;;;11.57;4.13;;;15.20;99.90;;;;;;5067267;27;36073;-79
2022/08/28 00:46:40;;;;;;;9.70;4.57;;;15.20;99.90;;;;;;5063817;28;40575;-78
2022/08/28 00:49:06;;;;;;;10.93;4.53;;;15.20;99.90;;;;;;5065475;28;38645;-79
2022/08/28 00:54:20;;;;;;;9.90;4.15;;;15.20;99.90;;;;;;5076391;27;37814;-77
2022/08/28 00:56:48;;;;;;;8.38;4.50;;;15.10;99.90;;;;;;5081096;28;38344;-77
2022/08/28 00:59:18;;;;;;;11.43;3.72;;;15.10;99.90;;;;;;5057689;28;39679;-79
2022/08/28 01:01:47;;;;;;;10.13;4.07;;;15.10;99.90;;;;;;5082161;27;38214;-77
2022/08/28 01:04:18;;;;;;;10.70;4.75;;;15.10;99.90;;;;;;5067222;28;37595;-77
2022/08/28 01:06:47;;;;;;;8.63;3.70;;;15.10;99.90;;;;;;5080301;28;39151;-78
2022/08/28 01:09:14;;;;;;;9.52;4.18;;;15.10;99.90;;;;;;5080490;27;39607;-77
2022/08/28 01:11:45;;;;;;;8.25;4.00;;;15.00;99.90;;;;;;5078886;28;39137;-78
2022/08/28 01:14:13;;;;;;;9.35;3.97;;;15.00;99.90;;;;;;5081478;27;38272;-78
2022/08/28 01:16:41;;;;;;;12.48;4.97;;;15.00;99.90;;;;;;5078421;28;39087;-78
2022/08/28 01:19:16;;;;;;;10.20;4.85;;;14.90;99.90;;;;;;5082330;28;38720;-77
2022/08/28 01:22:03;;;;;;;13.95;5.03;;;14.90;99.90;;;;;;5057159;28;38706;-77
2022/08/28 01:24:30;;;;;;;11.75;5.53;;;14.80;99.90;;;;;;5076168;28;48676;-77
2022/08/28 01:26:56;;;;;;;7.40;4.25;;;14.80;99.90;;;;;;5059172;28;40208;-77
2022/08/28 01:29:23;;;;;;;10.95;4.75;;;14.80;99.90;;;;;;5084313;27;39201;-77
2022/08/28 01:31:49;;;;;;;6.68;3.85;;;14.80;99.90;;;;;;5084507;28;37658;-78
2022/08/28 01:34:15;;;;;;;11.55;4.45;;;14.80;99.90;;;;;;5063361;28;37514;-77
2022/08/28 01:36:41;;;;;;;9.15;4.20;;;14.80;99.90;;;;;;5079784;28;38650;-78
2022/08/28 01:39:13;;;;;;;9.68;4.65;;;14.80;99.90;;;;;;5059388;28;39885;-78
2022/08/28 01:41:42;;;;;;;11.50;4.15;;;14.80;99.90;;;;;;5058342;28;38381;-78
2022/08/28 01:44:08;;;;;;;7.97;3.85;;;14.80;99.90;;;;;;5085271;27;37113;-77
2022/08/28 01:46:34;;;;;;;9.43;3.72;;;14.70;99.90;;;;;;5082530;28;38687;-77
2022/08/28 01:49:00;;;;;;;11.02;3.78;;;14.70;99.90;;;;;;5080926;27;39869;-77
2022/08/28 01:51:26;;;;;;;8.50;3.88;;;14.70;99.90;;;;;;5064905;28;40583;-78
2022/08/28 01:53:52;;;;;;;6.55;3.33;;;14.70;99.90;;;;;;5078967;27;37207;-77
2022/08/28 01:56:19;;;;;;;11.23;3.50;;;14.70;99.90;;;;;;5068095;28;39125;-77
2022/08/28 01:58:47;;;;;;;9.05;3.60;;;14.60;99.90;;;;;;5078547;27;39551;-77
2022/08/28 02:01:16;;;;;;;9.95;3.60;;;14.60;99.90;;;;;;5081413;28;38879;-77
2022/08/28 02:03:42;;;;;;;11.82;3.65;;;14.60;99.90;;;;;;5079744;27;37835;-78
2022/08/28 02:06:09;;;;;;;11.77;4.05;;;14.60;99.90;;;;;;5077699;28;38667;-78
2022/08/28 02:08:35;;;;;;;8.88;3.65;;;14.60;99.90;;;;;;5070876;27;38629;-78
2022/08/28 02:11:05;;;;;;;7.30;3.38;;;14.60;99.90;;;;;;5044129;28;39641;-77
2022/08/28 02:13:32;;;;;;;12.38;3.92;;;14.50;99.90;;;;;;5057820;28;37750;-78
2022/08/28 02:15:59;;;;;;;8.43;3.60;;;14.50;99.90;;;;;;5061491;28;39403;-77
2022/08/28 02:18:25;;;;;;;9.00;3.35;;;14.50;99.90;;;;;;5068524;28;38927;-78
2022/08/28 02:20:51;;;;;;;11.65;3.55;;;14.50;99.90;;;;;;5082349;28;37908;-78
2022/08/28 02:23:18;;;;;;;11.13;3.65;;;14.50;99.90;;;;;;5064412;28;38755;-78
2022/08/28 02:25:44;;;;;;;8.73;4.10;;;14.50;99.90;;;;;;5065153;28;40053;-78
2022/08/28 02:28:10;;;;;;;7.18;3.22;;;14.60;99.90;;;;;;5061575;28;39961;-77
2022/08/28 02:30:36;;;;;;;11.82;3.97;;;14.60;99.90;;;;;;5066623;28;39366;-78
2022/08/28 02:33:03;;;;;;;9.80;3.45;;;14.60;99.90;;;;;;5082600;28;38736;-78
2022/08/28 02:35:30;;;;;;;7.35;3.20;;;14.60;99.90;;;;;;5081491;28;39953;-77
2022/08/28 02:37:56;;;;;;;9.30;3.72;;;14.60;99.90;;;;;;5063731;28;39384;-78
2022/08/28 02:40:23;;;;;;;8.25;3.30;;;14.50;99.90;;;;;;5069578;28;36952;-77
2022/08/28 02:42:50;;;;;;;7.18;3.15;;;14.50;99.90;;;;;;5067158;28;37741;-77
2022/08/28 02:45:17;;;;;;;8.23;4.07;;;14.50;99.90;;;;;;5060765;28;38431;-77
2022/08/28 02:47:45;;;;;;;7.00;3.08;;;14.50;99.90;;;;;;5063023;28;39579;-78
2022/08/28 02:50:14;;;;;;;7.70;3.70;;;14.50;99.90;;;;;;5058655;28;38226;-77
2022/08/28 02:52:40;;;;;;;9.85;3.88;;;14.50;99.90;;;;;;5059350;28;39887;-78
2022/08/28 02:55:08;;;;;;;9.40;3.47;;;14.50;99.90;;;;;;5059319;28;40687;-78
2022/08/28 02:57:34;;;;;;;6.20;3.40;;;14.50;99.90;;;;;;5057273;28;38579;-78
2022/08/28 03:00:02;;;;;;;8.23;3.25;;;14.40;99.90;;;;;;5058762;28;37959;-77
2022/08/28 03:02:28;;;;;;;11.75;3.97;;;14.50;99.90;;;;;;5059455;28;36691;-78
2022/08/28 03:04:54;;;;;;;5.75;3.50;;;14.50;99.90;;;;;;5061360;28;39590;-78
2022/08/28 03:07:21;;;;;;;8.70;3.78;;;14.50;99.90;;;;;;5060989;28;39410;-78
2022/08/28 03:09:48;;;;;;;8.48;3.55;;;14.50;99.90;;;;;;5058269;28;37806;-77
2022/08/28 03:12:15;;;;;;;8.90;3.10;;;14.40;99.90;;;;;;5059244;28;38780;-78
2022/08/28 03:14:42;;;;;;;6.63;3.33;;;14.40;99.90;;;;;;5076314;28;39002;-78
2022/08/28 03:17:08;;;;;;;7.68;3.50;;;14.40;99.90;;;;;;5057955;28;39006;-78
2022/08/28 03:19:34;;;;;;;7.57;3.17;;;14.40;99.90;;;;;;5065042;28;39795;-78
2022/08/28 03:22:01;;;;;;;6.35;3.35;;;14.40;99.90;;;;;;5077348;28;37349;-77
2022/08/28 03:24:27;;;;;;;6.55;3.20;;;14.40;99.90;;;;;;5079350;28;47042;-78
2022/08/28 03:26:53;;;;;;;8.20;3.58;;;14.40;99.90;;;;;;5062958;28;38902;-77
2022/08/28 03:29:19;;;;;;;10.43;3.78;;;14.40;99.90;;;;;;5070706;28;39679;-78
2022/08/28 03:31:45;;;;;;;6.45;3.10;;;14.40;99.90;;;;;;5084986;28;38280;-78
2022/08/28 03:34:12;;;;;;;9.95;3.60;;;14.30;99.90;;;;;;5076342;28;39230;-78
2022/08/28 03:36:38;;;;;;;8.05;3.25;;;14.30;99.90;;;;;;5056259;28;39370;-77
2022/08/28 03:39:05;;;;;;;7.20;3.38;;;14.30;99.90;;;;;;5063678;27;38800;-78
2022/08/28 03:41:32;;;;;;;12.70;3.97;;;14.20;99.90;;;;;;5069878;28;37283;-78
2022/08/28 03:44:00;;;;;;;15.98;3.88;;;14.20;99.90;;;;;;5044723;28;40351;-77
2022/08/28 03:46:31;;;;;;;11.23;3.83;;;14.20;99.90;;;;;;5074918;28;47582;-78
2022/08/28 03:48:58;;;;;;;12.18;3.53;;;14.30;99.90;;;;;;5078287;27;37803;-78
2022/08/28 03:51:27;;;;;;;7.80;3.10;;;14.30;99.90;;;;;;5073752;28;37806;-78
2022/08/28 03:53:54;;;;;;;10.38;3.17;;;14.30;99.90;;;;;;5077490;27;38570;-78
2022/08/28 03:56:23;;;;;;;8.07;3.75;;;14.20;99.90;;;;;;5043883;28;37974;-77
2022/08/28 03:58:51;;;;;;;7.72;3.83;;;14.30;99.90;;;;;;5038341;28;36425;-77
2022/08/28 04:01:17;;;;;;;15.10;4.20;;;14.20;99.90;;;;;;5032020;28;38074;-77
2022/08/28 04:03:44;;;;;;;7.68;3.05;;;14.30;99.90;;;;;;5037570;28;41839;-78
2022/08/28 04:06:11;;;;;;;9.15;3.30;;;14.30;99.90;;;;;;5055944;28;39224;-78
2022/08/28 04:08:38;;;;;;;8.02;3.20;;;14.20;99.90;;;;;;5059643;28;39029;-78
2022/08/28 04:11:04;;;;;;;9.30;3.42;;;14.30;99.90;;;;;;5057221;28;38020;-78
2022/08/28 04:13:31;;;;;;;9.70;3.85;;;14.30;99.90;;;;;;5044696;28;39708;-78
2022/08/28 04:15:58;;;;;;;11.70;3.60;;;14.30;99.90;;;;;;5036059;28;39235;-77
2022/08/28 04:18:26;;;;;;;7.20;3.17;;;14.30;99.90;;;;;;5031594;28;38536;-77
2022/08/28 04:21:04;;;;;;;11.07;3.05;;;14.20;99.90;;;;;;5070673;28;36841;-78
2022/08/28 04:23:31;;;;;;;6.70;3.50;;;14.20;99.90;;;;;;5078517;27;48330;-78
2022/08/28 04:25:57;;;;;;;7.22;3.28;;;14.20;99.90;;;;;;5064052;28;40590;-78
2022/08/28 04:28:24;;;;;;;12.23;3.38;;;14.20;99.90;;;;;;5077344;27;39310;-78
2022/08/28 04:30:53;;;;;;;7.85;3.53;;;14.20;99.90;;;;;;5075745;28;37666;-77
2022/08/28 04:33:24;;;;;;;8.68;3.53;;;14.20;99.90;;;;;;5078519;28;38616;-78
2022/08/28 04:35:51;;;;;;;12.20;3.63;;;14.20;99.90;;;;;;5066981;28;38588;-78
2022/08/28 04:38:18;;;;;;;7.88;3.25;;;14.20;99.90;;;;;;5060953;28;39618;-79
2022/08/28 04:40:45;;;;;;;10.93;3.40;;;14.20;99.90;;;;;;5041934;28;37854;-78
2022/08/28 04:43:11;;;;;;;10.93;3.60;;;14.20;99.90;;;;;;5045228;28;39498;-78
2022/08/28 04:45:39;;;;;;;7.32;3.15;;;14.20;99.90;;;;;;5060307;28;37114;-78
2022/08/28 04:48:06;;;;;;;8.73;3.63;;;14.20;99.90;;;;;;5067444;28;38253;-77
2022/08/28 04:50:32;;;;;;;6.78;3.17;;;14.20;99.90;;;;;;5055515;28;38714;-77
2022/08/28 04:52:59;;;;;;;9.52;3.35;;;14.20;99.90;;;;;;5057978;28;38746;-78
2022/08/28 04:55:25;;;;;;;6.63;2.92;;;14.20;99.90;;;;;;5055727;28;37442;-78
2022/08/28 04:57:51;;;;;;;8.18;2.92;;;14.20;99.90;;;;;;5057673;28;35795;-77
2022/08/28 05:00:18;;;;;;;5.53;2.92;;;14.10;99.90;;;;;;5066675;28;38018;-78
2022/08/28 05:02:44;;;;;;;11.65;3.22;;;14.10;99.90;;;;;;5057711;28;40584;-78
2022/08/28 05:05:10;;;;;;;10.23;3.22;;;14.10;99.90;;;;;;5073632;28;38552;-77
2022/08/28 05:07:36;;;;;;;14.02;3.45;;;14.10;99.90;;;;;;5072005;28;38939;-78
2022/08/28 05:10:03;;;;;;;7.10;2.92;;;14.10;99.90;;;;;;5083506;28;38090;-78
2022/08/28 05:12:29;;;;;;;8.27;3.50;;;14.10;99.90;;;;;;5074018;28;47056;-78
2022/08/28 05:14:55;;;;;;;6.43;3.55;;;14.20;99.90;;;;;;5060081;28;38911;-77
2022/08/28 05:17:21;;;;;;;6.00;2.83;;;14.20;99.90;;;;;;5078808;27;38021;-77
2022/08/28 05:19:47;;;;;;;5.78;2.58;;;14.20;99.90;;;;;;5079735;28;37950;-77
2022/08/28 05:22:13;;;;;;;6.55;2.85;;;14.20;99.90;;;;;;5051121;28;40418;-77
2022/08/28 05:24:39;;;;;;;9.90;3.20;;;14.20;99.90;;;;;;5063268;28;39063;-78
2022/08/28 05:27:07;;;;;;;8.57;3.47;;;14.20;99.90;;;;;;5059364;27;39159;-78
2022/08/28 05:29:33;;;;;;;9.10;3.53;;;14.20;99.90;;;;;;5076936;28;37434;-78
2022/08/28 05:31:59;;;;;;;11.80;3.83;;;14.20;99.90;;;;;;5061669;28;39775;-78
2022/08/28 05:34:25;;;;;;;8.98;3.42;;;14.20;99.90;;;;;;5074908;28;38777;-78
2022/08/28 05:36:52;;;;;;;9.98;3.70;;;14.30;99.90;;;;;;5079693;28;39014;-79
2022/08/28 05:39:18;;;;;;;7.75;3.72;;;14.30;99.90;;;;;;5076623;28;38025;-79
2022/08/28 05:41:45;;;;;;;6.90;3.25;;;14.30;99.90;;;;;;5059140;28;38004;-78
2022/08/28 05:44:12;;;;;;;10.63;3.17;;;14.40;99.90;;;;;;5073265;27;38919;-78
2022/08/28 05:46:41;;;;;;;6.25;3.50;;;14.40;99.90;;;;;;5058923;28;38321;-78
2022/08/28 05:49:08;;;;;;;6.63;2.80;;;14.50;99.90;;;;;;5078423;28;37459;-78
2022/08/28 05:51:34;;;;;;;7.38;2.97;;;14.60;99.90;;;;;;5060334;28;39745;-79
2022/08/28 05:54:02;;;;;;;11.80;3.45;;;14.60;99.90;;;;;;5062339;28;39544;-78
2022/08/28 05:56:31;;;;;;;10.40;3.28;;;14.70;99.90;;;;;;5078293;28;48416;-77
2022/08/28 05:58:59;;;;;;;10.13;3.40;;;14.70;99.90;;;;;;5065122;28;37981;-78
2022/08/28 06:01:28;;;;;;;9.82;3.10;;;14.80;99.90;;;;;;5070440;28;39594;-79
2022/08/28 06:04:01;;;;;;;12.02;3.28;;;14.90;99.90;;;;;;5053237;28;39301;-80
2022/08/28 06:06:28;;;;;;;;;;;14.90;99.90;;;;;;5064356;28;48877;-79
2022/08/28 06:09:00;;;;;;;8.75;2.92;;;15.00;99.90;;;;;;5069465;28;38468;-79
2022/08/28 06:11:29;;;;;;;9.20;2.75;;;15.00;99.90;;;;;;5075534;28;48566;-78
2022/08/28 06:14:00;;;;;;;10.63;3.25;;;15.10;99.90;;;;;;5079842;27;38420;-79
2022/08/28 06:16:28;;;;;;;6.68;2.85;;;15.20;99.90;;;;;;5062162;28;46387;-79
2022/08/28 06:18:55;;;;;;;15.10;4.07;;;15.30;99.90;;;;;;5063147;28;37481;-78
2022/08/28 06:21:40;;;;;;;6.82;2.47;;;15.40;99.90;;;;;;5103648;27;20401;-78
2022/08/28 06:24:07;;;;;;;6.60;2.35;;;15.50;99.90;;;;;;5074862;27;37707;-78
2022/08/28 06:26:33;;;;;;;7.38;2.65;;;15.50;99.90;;;;;;5068679;27;37160;-80
2022/08/28 06:29:01;;;;;;;7.40;2.60;;;15.60;99.90;;;;;;5069228;27;38646;-79
2022/08/28 06:31:28;;;;;;;7.60;2.65;;;15.70;99.90;;;;;;5088776;27;47569;-79
2022/08/28 06:33:57;;;;;;;5.45;2.10;;;15.80;99.90;;;;;;5067729;28;37631;-79
2022/08/28 06:36:26;;;;;;;5.93;2.50;;;15.90;99.90;;;;;;5067196;27;35799;-79
2022/08/28 06:38:54;;;;;;;7.22;2.80;;;16.00;99.90;;;;;;5085455;28;39623;-79
2022/08/28 06:41:20;;;;;;;7.90;2.83;;;16.20;99.90;;;;;;5088692;27;39092;-79
2022/08/28 06:43:46;;;;;;;5.60;2.53;;;16.30;99.90;;;;;;5077286;28;36783;-79
2022/08/28 06:46:12;;;;;;;5.68;2.17;;;16.40;99.90;;;;;;5089397;27;37372;-79
2022/08/28 06:48:39;;;;;;;6.80;2.78;;;16.50;99.90;;;;;;5068249;27;39448;-79
2022/08/28 06:51:08;;;;;;;10.15;2.75;;;16.70;99.90;;;;;;5087234;27;37974;-76
2022/08/28 06:53:35;;;;;;;10.23;2.58;;;16.80;99.90;;;;;;5072145;28;38782;-78
2022/08/28 06:56:06;;;;;;;8.75;2.70;;;16.80;99.90;;;;;;5069629;28;36446;-77
2022/08/28 06:58:34;;;;;;;7.03;2.35;;;16.90;99.90;;;;;;5071959;28;37835;-77
2022/08/28 07:01:03;;;;;;;9.38;2.30;;;16.90;99.90;;;;;;5069802;28;37746;-77
2022/08/28 07:03:29;;;;;;;7.28;2.17;;;17.00;99.90;;;;;;5083825;27;47404;-77
2022/08/28 07:05:57;;;;;;;11.32;3.58;;;17.10;99.90;;;;;;5062564;28;37066;-77
2022/08/28 07:08:25;;;;;;;7.68;2.30;;;17.10;99.90;;;;;;5059909;27;37848;-83
2022/08/28 07:10:52;;;;;;;7.13;2.45;;;17.10;99.90;;;;;;5089367;28;37619;-77
2022/08/28 07:13:20;;;;;;;5.80;2.35;;;17.10;99.90;;;;;;5090821;27;37324;-77
2022/08/28 07:15:47;;;;;;;10.27;2.30;;;17.10;99.90;;;;;;5088729;27;37701;-77
2022/08/28 07:18:13;;;;;;;5.30;2.17;;;17.20;99.90;;;;;;5086710;28;39736;-77
2022/08/28 07:20:40;;;;;;;7.45;2.30;;;17.30;99.90;;;;;;5083247;27;38431;-78
2022/08/28 07:23:06;;;;;;;11.25;3.05;;;17.60;99.90;;;;;;5088347;27;37557;-78
2022/08/28 07:25:32;;;;;;;7.10;2.20;;;17.80;99.90;;;;;;5089826;28;37015;-77
2022/08/28 07:27:59;;;;;;;8.77;2.55;;;18.20;99.90;;;;;;5091115;28;37049;-77
2022/08/28 07:30:25;;;;;;;5.78;2.28;;;18.50;99.90;;;;;;5090348;27;38506;-77
2022/08/28 07:32:52;;;;;;;8.48;2.10;;;18.70;99.90;;;;;;5072776;28;37444;-77
2022/08/28 07:35:19;;;;;;;8.82;1.80;;;19.00;99.90;;;;;;5057215;28;36370;-77
2022/08/28 07:37:45;;;;;;;4.40;1.88;;;19.30;99.90;;;;;;5073504;28;38339;-76
2022/08/28 07:40:12;;;;;;;5.72;2.22;;;19.20;99.90;;;;;;5076695;28;38310;-76
2022/08/28 07:45:23;;;;;;;9.23;2.33;;;19.20;99.90;;;;;;5074967;28;37088;-77
2022/08/28 07:47:49;;;;;;;8.88;1.95;;;19.20;99.90;;;;;;5071014;28;38574;-77
2022/08/28 07:50:15;;;;;;;4.53;1.85;;;19.50;99.90;;;;;;5066722;28;38468;-77
2022/08/28 07:52:41;;;;;;;6.75;2.20;;;19.80;99.90;;;;;;5058041;28;36500;-76
2022/08/28 07:55:08;;;;;;;6.72;2.10;;;19.60;99.90;;;;;;5069521;28;38016;-77
2022/08/28 07:57:34;;;;;;;6.07;1.65;;;19.60;99.90;;;;;;5055203;28;39575;-77
2022/08/28 08:00:00;;;;;;;6.78;1.60;;;19.80;99.90;;;;;;5072395;28;39080;-76
2022/08/28 08:02:27;;;;;;;5.93;1.83;;;20.30;99.90;;;;;;5081955;28;38569;-78
2022/08/28 08:04:53;;;;;;;5.72;1.75;;;20.50;99.90;;;;;;5073884;28;38997;-78
2022/08/28 08:07:19;;;;;;;8.15;1.98;;;20.50;99.90;;;;;;5074356;28;39433;-79
2022/08/28 08:09:45;;;;;;;7.28;2.20;;;20.70;99.90;;;;;;5054387;28;38993;-79
2022/08/28 08:12:13;;;;;;;7.10;2.25;;;20.80;99.90;;;;;;5048157;28;37396;-78
2022/08/28 08:14:41;;;;;;;4.18;1.80;;;20.90;99.90;;;;;;5075460;28;37933;-76
2022/08/28 08:17:08;;;;;;;2.95;1.70;;;20.80;99.90;;;;;;5073102;28;38524;-76
2022/08/28 08:19:35;;;;;;;9.85;1.85;;;20.80;99.90;;;;;;5076955;28;37127;-76
2022/08/28 08:22:01;;;;;;;4.22;1.73;;;21.00;99.90;;;;;;5051330;28;37313;-76
2022/08/28 08:24:29;;;;;;;9.73;1.95;;;21.10;99.90;;;;;;5050381;28;46495;-77
2022/08/28 08:26:59;;;;;;;4.30;1.33;;;21.30;99.90;;;;;;5072714;28;39895;-76
2022/08/28 08:29:26;;;;;;;5.03;1.55;;;21.50;99.90;;;;;;5070314;28;38531;-76
2022/08/28 08:31:57;;;;;;;6.15;1.73;;;21.40;99.90;;;;;;5065408;28;37941;-77
2022/08/28 08:34:23;;;;;;;7.93;1.95;;;21.40;99.90;;;;;;5050458;28;35538;-76
2022/08/28 08:36:49;;;;;;;5.82;1.95;;;21.40;99.90;;;;;;5057336;28;39507;-77
2022/08/28 08:39:15;;;;;;;6.78;1.20;;;21.40;99.90;;;;;;5065911;28;39447;-77
2022/08/28 08:41:48;;;;;;;4.22;1.58;;;21.50;99.90;;;;;;5064717;28;38243;-76
2022/08/28 08:44:27;;;;;;;6.35;1.60;;;21.50;99.90;;;;;;5061118;28;35587;-76
2022/08/28 08:47:15;;;;;;;5.15;1.60;;;21.70;99.90;;;;;;5053413;28;37616;-76
2022/08/28 08:49:46;;;;;;;3.90;1.27;;;21.70;99.90;;;;;;5057873;28;47074;-76
2022/08/28 08:52:34;;;;;;;4.60;1.95;;;21.60;99.90;;;;;;5059850;28;37603;-76
2022/08/28 08:55:17;;;;;;;4.75;2.45;;;21.40;99.90;;;;;;5055026;28;37053;-76
2022/08/28 08:57:45;;;;;;;4.50;1.58;;;21.40;99.90;;;;;;5062201;28;47215;-76
2022/08/28 09:00:11;;;;;;;6.13;1.80;;;21.40;99.90;;;;;;5079302;28;37291;-76
2022/08/28 09:02:46;;;;;;;5.05;1.73;;;21.20;99.90;;;;;;5064709;28;36559;-77
2022/08/28 09:05:18;;;;;;;4.68;1.38;;;21.10;99.90;;;;;;5075764;28;38203;-76
2022/08/28 09:08:05;;;;;;;5.57;1.48;;;21.30;99.90;;;;;;5054398;28;39301;-76
2022/08/28 09:10:41;;;;;;;4.70;1.95;;;21.10;99.90;;;;;;5078264;28;47146;-76
2022/08/28 09:13:24;;;;;;;3.45;1.15;;;21.10;99.90;;;;;;5070855;28;37539;-76
2022/08/28 09:15:50;;;;;;;3.35;1.25;;;21.10;99.90;;;;;;5085403;28;37688;-76
2022/08/28 09:18:32;;;;;;;4.07;1.20;;;21.50;99.90;;;;;;5068031;28;38979;-76
2022/08/28 09:20:59;;;;;;;3.92;1.25;;;22.10;99.90;;;;;;5052204;28;37349;-76
2022/08/28 09:23:27;;;;;;;4.97;1.50;;;22.50;99.90;;;;;;5048525;28;37718;-76
2022/08/28 09:26:02;;;;;;;3.85;1.27;;;22.70;99.90;;;;;;5054453;28;36079;-76
2022/08/28 09:28:35;;;;;;;6.38;1.50;;;22.90;99.90;;;;;;5051439;28;47181;-76
2022/08/28 09:31:08;;;;;;;5.38;1.85;;;22.70;99.90;;;;;;5053452;28;40805;-76
2022/08/28 09:33:40;;;;;;;5.75;1.55;;;22.80;99.90;;;;;;5056086;28;38366;-76
2022/08/28 09:36:25;;;;;;;2.40;1.02;;;22.90;99.90;;;;;;5050978;28;38870;-76
2022/08/28 09:39:12;;;;;;;5.72;1.60;;;23.00;99.90;;;;;;5052991;28;39661;-76
2022/08/28 09:44:32;;;;;;;5.53;2.08;;;22.80;99.90;;;;;;5052808;28;49412;-76
2022/08/28 09:46:59;;;;;;;4.95;1.40;;;23.00;99.90;;;;;;5053590;28;37409;-76
2022/08/28 09:49:29;;;;;;;4.55;1.73;;;23.20;99.90;;;;;;5048493;28;38454;-76
2022/08/28 09:52:00;;;;;;;3.60;1.55;;;23.10;99.90;;;;;;5056324;28;38252;-76
2022/08/28 09:54:37;;;;;;;3.83;1.17;;;23.00;99.90;;;;;;5051468;28;40626;-76
2022/08/28 09:57:04;;;;;;;2.45;1.38;;;23.40;99.90;;;;;;5047660;28;37857;-76
2022/08/28 09:59:30;;;;;;;7.00;1.38;;;23.60;99.90;;;;;;5050511;28;38389;-77
2022/08/28 10:02:02;;;;;;;4.10;1.50;;;24.00;99.90;;;;;;5054721;28;39203;-77
2022/08/28 10:04:34;;;;;;;3.25;1.40;;;24.30;99.90;;;;;;5050696;28;48211;-76
2022/08/28 10:07:04;;;;;;;2.92;1.35;;;24.20;99.90;;;;;;5050339;28;37451;-76
2022/08/28 10:10:21;;;;;;;4.43;1.35;;;24.30;99.90;;;;;;5061531;28;47147;-77
2022/08/28 10:13:09;;;;;;;5.70;1.38;;;24.00;99.90;;;;;;5022598;28;47306;-76
2022/08/28 10:15:57;;;;;;;4.88;1.60;;;23.90;99.90;;;;;;5049495;28;48528;-76
2022/08/28 10:18:51;;;;;;;4.18;1.13;;;23.70;99.90;;;;;;5059963;28;36253;-76
2022/08/28 10:21:31;;;;;;;5.30;1.70;;;24.00;99.90;;;;;;5062114;28;40628;-76
2022/08/28 10:24:16;;;;;;;3.30;1.20;;;24.40;99.90;;;;;;5050171;28;39148;-76
2022/08/28 10:27:00;;;;;;;4.72;1.40;;;24.00;99.90;;;;;;5049987;28;47042;-76
2022/08/28 10:30:06;;;;;;;3.90;1.30;;;23.90;99.90;;;;;;5054228;28;47641;-76
2022/08/28 10:32:51;;;;;;;6.85;1.33;;;24.40;99.90;;;;;;5053270;28;47579;-76
2022/08/28 10:35:21;;;;;;;3.80;1.30;;;24.80;99.90;;;;;;5068517;28;39615;-74
2022/08/28 10:37:59;;;;;;;3.50;1.42;;;24.90;99.90;;;;;;5054491;28;37820;-74
2022/08/28 10:40:37;;;;;;;4.20;1.27;;;25.10;99.90;;;;;;5050454;28;37026;-75
2022/08/28 10:43:11;;;;;;;5.50;1.80;;;25.40;99.90;;;;;;5044852;28;37718;-75
2022/08/28 10:45:38;;;;;;;4.03;1.00;;;25.30;99.90;;;;;;5050634;28;38250;-75
2022/08/28 10:48:10;;;;;;;2.88;1.13;;;25.30;99.90;;;;;;5057138;28;38275;-75
2022/08/28 10:50:59;;;;;;;;;;;25.30;99.90;;;;;;5060711;28;37057;-75
2022/08/28 10:53:39;;;;;;;4.45;1.35;;;25.30;99.90;;;;;;5058035;28;39354;-75
2022/08/28 10:56:14;;;;;;;2.60;1.08;;;25.30;99.90;;;;;;5056963;28;38940;-75
2022/08/28 10:58:40;;;;;;;3.83;1.00;;;24.60;99.90;;;;;;5053771;28;38276;-74
2022/08/28 11:01:13;;;;;;;5.35;1.45;;;24.00;99.90;;;;;;5050090;28;37460;-75
2022/08/28 11:03:49;;;;;;;2.85;1.17;;;23.90;99.90;;;;;;5054342;28;39010;-74
2022/08/28 11:06:53;;;;;;;2.72;1.65;;;24.50;99.90;;;;;;5055329;28;39922;-75
2022/08/28 11:09:42;;;;;;;7.32;1.60;;;25.20;99.90;;;;;;5060780;28;37657;-75
2022/08/28 11:12:14;;;;;;;6.15;1.10;;;24.20;99.90;;;;;;5057019;28;38343;-77
2022/08/28 11:14:42;;;;;;;;;;;23.70;99.90;;;;;;5054344;28;39570;-77
2022/08/28 11:17:30;;;;;;;4.50;1.48;;;23.90;99.90;;;;;;5051815;28;38593;-77
2022/08/28 11:20:16;;;;;;;2.67;1.10;;;24.10;99.90;;;;;;5058404;28;38043;-77
2022/08/28 11:23:09;;;;;;;6.80;1.38;;;24.30;99.90;;;;;;5076778;28;49440;-77
2022/08/28 11:26:07;;;;;;;3.97;1.27;;;25.00;99.90;;;;;;5077598;28;49439;-76
2022/08/28 11:28:33;;;;;;;3.50;1.33;;;24.80;99.90;;;;;;5047734;28;47688;-77
2022/08/28 11:31:05;;;;;;;5.15;1.30;;;24.40;99.90;;;;;;5064634;28;37735;-77
2022/08/28 11:33:54;;;;;;;3.25;1.30;;;24.20;99.90;;;;;;5064369;28;49076;-76
2022/08/28 11:36:20;;;;;;;4.25;1.45;;;23.90;99.90;;;;;;5035307;28;39215;-75
2022/08/28 11:38:56;;;;;;;2.55;1.38;;;23.30;99.90;;;;;;5032762;28;38458;-74
2022/08/28 11:41:28;;;;;;;8.32;1.67;;;23.10;99.90;;;;;;5048026;28;37447;-75
2022/08/28 11:44:09;;;;;;;4.53;1.70;;;23.20;99.90;;;;;;5044787;28;38933;-75
2022/08/28 11:46:43;;;;;;;7.72;1.40;;;23.60;99.90;;;;;;5049657;28;47267;-75
2022/08/28 11:49:31;;;;;;;6.97;1.60;;;24.20;99.90;;;;;;5050705;28;38953;-75
2022/08/28 11:52:16;;;;;;;5.07;1.48;;;24.90;99.90;;;;;;5055380;28;38702;-75
2022/08/28 11:55:09;;;;;;;2.33;0.90;;;25.20;99.90;;;;;;5056832;28;47908;-76
2022/08/28 11:57:41;;;;;;;3.88;1.40;;;24.90;99.90;;;;;;5061311;28;47077;-75
2022/08/28 12:00:20;;;;;;;1.33;0.90;;;24.40;99.90;;;;;;5066611;28;37057;-76
2022/08/28 12:03:08;;;;;;;4.50;1.13;;;24.50;99.90;;;;;;5074462;28;37203;-75
2022/08/28 12:05:40;;;;;;;5.13;1.40;;;25.00;99.90;;;;;;5073301;28;49033;-74
2022/08/28 12:08:08;;;;;;;2.80;1.20;;;25.30;99.90;;;;;;5073757;28;38570;-76
2022/08/28 12:10:34;;;;;;;2.42;1.23;;;24.80;99.90;;;;;;5058249;28;37535;-75
2022/08/28 12:13:02;;;;;;;3.80;1.10;;;24.40;99.90;;;;;;5056974;28;38828;-75
2022/08/28 12:15:28;;;;;;;2.28;1.00;;;24.00;99.90;;;;;;5077195;28;48405;-75
2022/08/28 12:18:01;;;;;;;3.20;1.20;;;24.20;99.90;;;;;;5073111;28;39845;-76
2022/08/28 12:20:45;;;;;;;7.38;1.17;;;24.50;99.90;;;;;;5063257;28;47404;-75
2022/08/28 12:23:30;;;;;;;4.47;1.20;;;24.60;99.90;;;;;;5067290;28;36540;-76
2022/08/28 12:26:08;;;;;;;3.13;1.00;;;24.60;99.90;;;;;;5072432;28;37919;-75
2022/08/28 12:28:52;;;;;;;3.13;1.20;;;24.50;99.90;;;;;;5070749;28;46945;-75
2022/08/28 12:32:10;;;;;;;3.33;1.20;;;24.70;99.90;;;;;;5058285;28;39728;-76
2022/08/28 12:34:38;;;;;;;3.42;1.15;;;24.80;99.90;;;;;;5071911;28;48979;-76
2022/08/28 12:37:35;;;;;;;3.40;1.10;;;25.20;99.90;;;;;;5079534;28;38582;-75
2022/08/28 12:40:18;;;;;;;3.72;1.42;;;25.60;99.90;;;;;;5060805;28;39493;-74
2022/08/28 12:42:51;;;;;;;2.30;0.82;;;25.90;99.90;;;;;;5063467;28;47059;-74
2022/08/28 12:45:44;;;;;;;2.25;1.00;;;26.20;99.90;;;;;;5058123;28;38151;-75
2022/08/28 12:48:16;;;;;;;4.97;1.60;;;25.80;99.90;;;;;;5049009;28;38093;-75
2022/08/28 12:50:43;;;;;;;2.97;1.02;;;25.30;99.90;;;;;;5067864;28;38855;-75
2022/08/28 12:53:17;;;;;;;3.38;1.10;;;25.00;99.90;;;;;;5057957;28;38895;-76
2022/08/28 12:55:44;;;;;;;2.30;0.80;;;25.20;99.90;;;;;;5070774;28;37384;-76
2022/08/28 12:58:32;;;;;;;3.53;1.60;;;25.60;99.90;;;;;;5067780;28;38111;-75
2022/08/28 13:01:08;;;;;;;5.65;1.60;;;25.60;99.90;;;;;;5050181;28;40576;-75
2022/08/28 13:03:42;;;;;;;3.90;1.20;;;25.50;99.90;;;;;;5052120;28;47183;-75
2022/08/28 13:06:10;;;;;;;2.72;1.20;;;24.60;99.90;;;;;;5052463;28;38250;-75
2022/08/28 13:08:37;;;;;;;4.60;0.98;;;23.90;99.90;;;;;;5058926;28;38142;-77
2022/08/28 13:11:03;;;;;;;4.65;1.15;;;23.50;99.90;;;;;;5051798;28;40572;-77
2022/08/28 13:13:43;;;;;;;4.22;1.52;;;23.20;99.90;;;;;;5057790;28;38851;-75
2022/08/28 13:16:30;;;;;;;3.20;1.40;;;23.10;99.90;;;;;;5054184;28;39300;-75